Time;durP1;ratioP1;P1;durP2;ratioP2;P2;SDS_P1;SDS_P2;PMS_P1;PMS_P2;Temp;Humidity;BMP_temperature;BMP_pressure;BME280_temperature;BME280_humidity;BME280_pressure;Samples;Min_cycle;Max_cycle;Signal;HPM_P1;HPM_P2
2023/10/02 00:01:11;;;;;;;;;16.20;16.00;;;;;14.78;44.16;100164.00;5066685;28;9743;-71
2023/10/02 00:03:41;;;;;;;;;21.00;19.60;;;;;14.80;44.29;100165.69;5067976;28;8828;-70
2023/10/02 00:06:16;;;;;;;;;20.80;18.00;;;;;14.78;44.42;100164.00;5034345;28;8961;-70
2023/10/02 00:08:51;;;;;;;;;18.20;17.60;;;;;14.80;44.28;100163.03;5036286;28;9466;-71
2023/10/02 00:11:39;;;;;;;;;18.40;16.40;;;;;14.76;44.56;100168.47;5067548;28;8973;-70
2023/10/02 00:17:03;;;;;;;;;18.60;18.60;;;;;14.73;44.78;100165.91;5006521;28;8881;-69
2023/10/02 00:19:36;;;;;;;;;12.80;11.80;;;;;14.73;45.04;100161.47;5008070;28;8869;-71
2023/10/02 00:22:08;;;;;;;;;15.60;15.20;;;;;14.69;45.20;100157.16;5007846;28;9658;-69
2023/10/02 00:24:39;;;;;;;;;19.20;16.60;;;;;14.68;45.46;100166.00;5007979;28;8963;-71
2023/10/02 00:27:09;;;;;;;;;16.40;16.40;;;;;14.66;45.22;100166.06;5007539;28;8917;-71
2023/10/02 00:29:51;;;;;;;;;15.00;15.00;;;;;14.65;45.58;100163.44;5024315;28;9663;-70
2023/10/02 00:32:20;;;;;;;;;20.00;17.40;;;;;14.66;45.69;100167.84;5007357;28;8862;-70
2023/10/02 00:34:52;;;;;;;;;15.80;14.80;;;;;14.65;45.72;100166.94;4973756;28;8873;-69
2023/10/02 00:37:21;;;;;;;;;15.20;14.00;;;;;14.63;45.78;100163.47;4990956;28;8862;-71
2023/10/02 00:39:52;;;;;;;;;21.40;14.40;;;;;14.59;45.91;100167.13;4991258;28;9087;-70
2023/10/02 00:42:24;;;;;;;;;19.00;17.20;;;;;14.60;45.99;100163.59;5024173;28;8862;-73
2023/10/02 00:44:57;;;;;;;;;16.00;14.60;;;;;14.56;46.10;100161.03;4991127;28;9658;-70
2023/10/02 00:47:45;;;;;;;;;17.00;16.60;;;;;14.56;46.24;100161.03;4974541;28;8854;-70
2023/10/02 00:50:17;;;;;;;;;17.60;17.40;;;;;14.57;46.07;100161.00;4991223;28;8988;-68
2023/10/02 00:52:58;;;;;;;;;16.20;15.00;;;;;14.62;46.16;100161.75;5006879;28;8854;-71
2023/10/02 00:55:32;;;;;;;;;17.20;16.00;;;;;14.48;46.34;100166.56;5031915;28;8858;-70
2023/10/02 00:58:04;;;;;;;;;17.20;15.20;;;;;14.42;46.72;100170.22;5068973;28;8873;-71
2023/10/02 01:00:36;;;;;;;;;19.00;16.80;;;;;14.42;46.69;100167.59;5068198;28;8846;-70
2023/10/02 01:03:09;;;;;;;;;18.40;16.80;;;;;14.40;46.70;100164.13;5067942;28;8962;-71
2023/10/02 01:05:47;;;;;;;;;15.60;14.20;;;;;14.40;46.93;100160.63;5016322;28;8835;-70
2023/10/02 01:08:42;;;;;;;;;18.80;17.80;;;;;14.41;46.82;100172.91;5067960;28;8850;-71
2023/10/02 01:11:14;;;;;;;;;17.80;15.80;;;;;14.40;46.79;100166.75;5084816;28;8939;-70
2023/10/02 01:13:44;;;;;;;;;16.20;15.40;;;;;14.36;46.86;100172.19;5101447;28;8850;-70
2023/10/02 01:16:17;;;;;;;;;13.60;13.20;;;;;14.34;47.30;100177.50;5068819;28;8854;-70
2023/10/02 01:18:48;;;;;;;;;17.80;17.60;;;;;14.29;47.57;100167.03;5033123;28;8948;-72
2023/10/02 01:21:24;;;;;;;;;19.80;19.00;;;;;14.26;47.76;100169.78;5067700;28;8860;-71
2023/10/02 01:24:10;;;;;;;;;21.60;18.60;;;;;14.07;48.29;100166.75;5017814;28;8858;-71
2023/10/02 01:26:42;;;;;;;;;16.60;16.60;;;;;13.95;48.59;100164.41;5033596;28;8854;-70
2023/10/02 01:29:12;;;;;;;;;20.40;19.20;;;;;13.99;48.49;100170.47;5067769;28;8869;-70
2023/10/02 01:31:45;;;;;;;;;19.60;17.40;;;;;13.93;48.67;100160.94;5049769;28;8822;-70
2023/10/02 01:34:33;;;;;;;;;18.00;18.00;;;;;13.94;48.44;100157.41;5068919;28;8869;-70
2023/10/02 01:37:32;;;;;;;;;18.80;17.40;;;;;13.92;48.71;100153.88;5066280;28;8826;-71
2023/10/02 01:40:28;;;;;;;;;16.00;14.60;;;;;13.93;48.82;100154.78;5063483;28;8885;-71
2023/10/02 01:42:44;;;;;;;;;19.60;15.00;;;;;13.58;49.74;100173.19;5047266;28;8840;-70
2023/10/02 01:45:13;;;;;;;;;17.60;16.40;;;;;13.68;49.66;100165.91;5047534;28;8884;-70
2023/10/02 01:47:43;;;;;;;;;17.80;16.80;;;;;13.70;49.67;100164.09;5048458;28;8926;-72
2023/10/02 01:50:13;;;;;;;;;19.40;17.40;;;;;13.70;50.56;100156.19;5061438;28;8876;-71
2023/10/02 01:52:45;;;;;;;;;13.00;10.00;;;;;13.72;50.13;100157.00;5080135;28;8844;-71
2023/10/02 01:55:29;;;;;;;;;13.20;12.80;;;;;13.76;50.06;100165.75;5064045;28;8879;-70
2023/10/02 01:58:16;;;;;;;;;18.20;16.00;;;;;13.81;49.80;100172.69;5063273;28;8977;-70
2023/10/02 02:00:46;;;;;;;;;19.80;17.00;;;;;13.82;50.21;100170.91;5046880;28;8873;-71
2023/10/02 02:03:14;;;;;;;;;20.20;16.80;;;;;13.82;50.01;100177.03;5066662;28;8892;-69
2023/10/02 02:05:46;;;;;;;;;19.20;18.00;;;;;13.82;50.19;100181.47;5066917;28;8869;-70
2023/10/02 02:08:25;;;;;;;;;16.40;16.40;;;;;13.83;50.43;100183.22;5065735;28;8858;-71
2023/10/02 02:11:14;;;;;;;;;17.60;16.20;;;;;13.81;50.57;100180.59;5083541;28;8980;-70
2023/10/02 02:13:47;;;;;;;;;16.20;15.00;;;;;13.80;50.52;100175.31;5068354;28;8851;-71
2023/10/02 02:16:21;;;;;;;;;17.00;15.00;;;;;13.76;50.26;100176.31;5068257;28;8842;-70
2023/10/02 02:18:53;;;;;;;;;18.00;16.80;;;;;13.77;50.40;100184.19;5067988;28;8866;-70
2023/10/02 02:21:25;;;;;;;;;16.20;14.00;;;;;13.73;50.58;100187.78;5049028;28;8835;-69
2023/10/02 02:24:06;;;;;;;;;15.00;15.00;;;;;13.75;50.52;100198.34;5043392;28;8834;-71
2023/10/02 02:26:39;;;;;;;;;18.20;16.20;;;;;13.74;50.71;100199.25;5045306;28;8858;-71
2023/10/02 02:29:23;;;;;;;;;15.20;15.00;;;;;13.73;50.89;100208.06;5045342;28;8960;-72
2023/10/02 02:31:54;;;;;;;;;14.00;14.00;;;;;13.70;51.12;100209.88;5044811;28;8951;-69
2023/10/02 02:34:25;;;;;;;;;16.80;14.60;;;;;13.69;50.87;100212.56;5045397;28;8834;-69
2023/10/02 02:36:57;;;;;;;;;20.00;16.40;;;;;13.68;51.16;100209.06;4996069;28;9818;-70
2023/10/02 02:39:27;;;;;;;;;17.00;15.80;;;;;13.70;51.35;100215.16;5041296;28;9022;-71
2023/10/02 02:42:18;;;;;;;;;14.60;14.60;;;;;13.70;51.58;100204.59;5025449;28;8943;-71
2023/10/02 02:44:49;;;;;;;;;14.40;13.00;;;;;13.65;51.81;100213.53;5025528;28;8824;-72
2023/10/02 02:47:21;;;;;;;;;18.40;16.40;;;;;13.63;52.01;100210.06;5025868;28;8864;-70
2023/10/02 02:49:52;;;;;;;;;15.60;15.20;;;;;13.59;52.50;100216.31;5042419;28;8842;-69
2023/10/02 02:52:24;;;;;;;;;13.00;11.40;;;;;13.59;52.66;100218.97;5045094;28;8854;-71
2023/10/02 02:55:04;;;;;;;;;15.40;14.40;;;;;13.60;52.66;100218.94;5057588;28;8840;-70
2023/10/02 02:57:38;;;;;;;;;14.40;13.60;;;;;13.61;52.85;100223.31;5065401;28;8848;-71
2023/10/02 03:02:52;;;;;;;;;15.00;15.00;;;;;13.57;53.06;100220.78;5049240;28;8896;-70
2023/10/02 03:05:37;;;;;;;;;14.20;12.60;;;;;13.59;53.13;100226.88;5064933;28;8962;-70
2023/10/02 03:08:08;;;;;;;;;16.00;16.00;;;;;13.55;52.99;100220.81;5057810;28;8814;-70
2023/10/02 03:10:39;;;;;;;;;28.60;24.40;;;;;13.55;53.64;100226.09;5085587;28;8850;-71
2023/10/02 03:13:15;;;;;;;;;71.00;54.25;;;;;13.54;53.43;100226.97;5053144;28;8861;-70
2023/10/02 03:15:48;;;;;;;;;34.50;32.00;;;;;13.49;53.51;100226.22;5085002;28;9630;-69
2023/10/02 03:18:30;;;;;;;;;17.40;17.40;;;;;13.51;53.87;100224.41;5068316;28;8842;-70
2023/10/02 03:21:14;;;;;;;;;15.00;14.60;;;;;13.47;53.75;100228.03;5099061;28;8996;-71
2023/10/02 03:23:43;;;;;;;;;16.40;14.60;;;;;13.45;53.89;100228.06;5060062;28;8821;-70
2023/10/02 03:26:26;;;;;;;;;15.80;15.80;;;;;13.46;53.92;100227.16;5058375;28;8846;-70
2023/10/02 03:29:02;;;;;;;;;20.00;16.60;;;;;13.51;53.81;100221.78;5065959;28;8876;-71
2023/10/02 03:31:43;;;;;;;;;16.60;15.00;;;;;13.47;54.03;100223.63;5067464;28;8830;-70
2023/10/02 03:34:33;;;;;;;;;31.60;31.20;;;;;13.48;53.86;100224.47;5066969;28;8870;-71
2023/10/02 03:37:13;;;;;;;;;21.60;19.80;;;;;13.47;53.79;100223.63;5065902;28;8923;-70
2023/10/02 03:39:53;;;;;;;;;20.00;19.20;;;;;13.45;53.78;100221.91;5064365;28;9581;-71
2023/10/02 03:42:25;;;;;;;;;20.80;16.60;;;;;13.45;53.94;100224.53;5048621;28;8861;-71
2023/10/02 03:44:57;;;;;;;;;18.20;15.80;;;;;13.47;53.92;100223.63;5049377;28;8950;-70
2023/10/02 03:47:30;;;;;;;;;16.20;16.20;;;;;13.45;54.03;100224.53;5050565;28;8876;-71
2023/10/02 03:50:01;;;;;;;;;19.80;18.80;;;;;13.39;53.99;100227.31;5051057;28;8903;-70
2023/10/02 03:52:34;;;;;;;;;55.50;43.00;;;;;13.39;54.56;100228.22;5054745;28;8838;-72
2023/10/02 03:55:15;;;;;;;;;27.40;26.20;;;;;13.35;54.79;100225.66;5070676;28;8927;-70
2023/10/02 03:57:49;;;;;;;;;19.80;17.00;;;;;13.38;54.73;100228.25;5070439;28;8876;-70
2023/10/02 04:00:22;;;;;;;;;15.80;14.60;;;;;13.41;54.70;100228.16;5070661;28;8846;-69
2023/10/02 04:02:53;;;;;;;;;14.40;13.60;;;;;13.38;54.46;100229.09;5070439;28;8856;-71
2023/10/02 04:05:42;;;;;;;;;17.40;14.80;;;;;13.38;54.70;100233.53;5070421;28;8954;-70
2023/10/02 04:08:24;;;;;;;;;40.20;34.60;;;;;13.43;54.82;100231.63;5034824;28;8873;-71
2023/10/02 04:10:56;;;;;;;;;45.00;34.75;;;;;13.41;54.78;100231.69;5070532;28;8858;-71
2023/10/02 04:13:32;;;;;;;;;26.20;22.40;;;;;13.46;54.71;100228.94;5052952;28;8856;-70
2023/10/02 04:18:58;;;;;;;;;17.00;15.20;;;;;13.41;54.82;100236.06;5050445;28;8867;-70
2023/10/02 04:21:29;;;;;;;;;19.20;18.40;;;;;13.35;54.88;100244.13;5032543;28;8861;-70
2023/10/02 04:23:58;;;;;;;;;16.80;15.80;;;;;13.33;55.11;100236.25;5065117;28;8854;-70
2023/10/02 04:26:31;;;;;;;;;16.60;16.20;;;;;13.30;55.19;100239.81;5069959;28;8913;-70
2023/10/02 04:29:13;;;;;;;;;21.60;21.60;;;;;13.29;54.93;100248.63;5064354;28;8947;-71
2023/10/02 04:31:44;;;;;;;;;30.80;28.40;;;;;13.26;55.21;100248.72;5049701;28;8875;-71
2023/10/02 04:34:24;;;;;;;;;24.00;21.60;;;;;13.26;55.49;100247.81;5049727;28;9660;-72
2023/10/02 04:36:53;;;;;;;;;16.80;16.80;;;;;13.26;55.78;100251.38;5081902;28;9590;-70
2023/10/02 04:42:21;;;;;;;;;17.00;16.00;;;;;13.30;55.46;100252.16;5068187;28;8839;-71
2023/10/02 04:44:56;;;;;;;;;18.60;17.20;;;;;13.33;55.24;100260.00;5100521;28;8882;-70
2023/10/02 04:47:30;;;;;;;;;22.20;15.40;;;;;13.39;55.31;100254.63;5069373;28;8865;-70
2023/10/02 04:53:04;;;;;;;;;19.40;18.00;;;;;13.37;55.35;100256.41;5027009;28;8840;-70
2023/10/02 04:55:41;;;;;;;;;18.80;18.40;;;;;13.40;55.22;100261.63;5026816;28;9684;-71
2023/10/02 04:58:14;;;;;;;;;15.40;15.40;;;;;13.40;55.18;100266.03;5031405;28;8849;-73
2023/10/02 05:01:18;;;;;;;;;17.80;17.80;;;;;13.31;55.22;100270.59;5029869;28;8955;-74
2023/10/02 05:03:49;;;;;;;;;20.60;17.40;;;;;13.36;55.60;100273.16;5008858;28;8848;-73
2023/10/02 05:06:39;;;;;;;;;18.60;16.40;;;;;13.39;55.18;100272.22;5036335;28;8869;-71
2023/10/02 05:09:26;;;;;;;;;19.40;19.00;;;;;13.41;55.15;100273.94;5029533;28;8975;-71
2023/10/02 05:11:57;;;;;;;;;19.20;16.20;;;;;13.48;55.45;100272.03;5045380;28;8860;-71
2023/10/02 05:14:28;;;;;;;;;18.00;17.60;;;;;13.55;55.21;100272.78;5046152;28;8860;-71
2023/10/02 05:17:18;;;;;;;;;15.60;13.80;;;;;13.56;55.13;100278.00;5046125;28;8839;-70
2023/10/02 05:20:04;;;;;;;;;22.40;22.20;;;;;13.65;55.33;100283.09;5027815;28;8886;-71
2023/10/02 05:22:33;;;;;;;;;20.20;19.80;;;;;13.69;55.30;100284.78;5046004;28;8866;-70
2023/10/02 05:25:04;;;;;;;;;21.60;19.00;;;;;13.77;55.02;100284.59;5028856;28;8854;-71
2023/10/02 05:27:35;;;;;;;;;21.20;19.40;;;;;13.62;55.28;100288.47;5045748;28;8971;-70
2023/10/02 05:30:12;;;;;;;;;26.20;21.80;;;;;13.75;55.26;100290.81;5060672;28;8977;-72
2023/10/02 05:32:42;;;;;;;;;29.80;28.20;;;;;13.85;55.06;100290.63;5068213;28;8885;-76
2023/10/02 05:35:23;;;;;;;;;25.40;20.60;;;;;13.95;55.00;100288.63;5046067;28;9715;-77
2023/10/02 05:37:54;;;;;;;;;22.80;22.40;;;;;14.02;54.67;100290.22;5052419;28;8938;-75
2023/10/02 05:40:39;;;;;;;;;23.00;21.80;;;;;14.02;54.59;100295.50;5059706;28;8884;-76
2023/10/02 05:43:10;;;;;;;;;21.60;20.40;;;;;14.04;54.63;100295.50;5084678;28;8937;-80
2023/10/02 05:45:47;;;;;;;;;18.40;17.40;;;;;14.15;54.53;100301.38;5067509;28;8858;-78
2023/10/02 05:48:27;;;;;;;;;23.40;19.60;;;;;14.27;54.35;100303.72;5066395;28;8858;-76
2023/10/02 05:51:09;;;;;;;;;20.80;19.40;;;;;14.20;54.26;100311.84;5069158;28;9094;-76
2023/10/02 05:53:53;;;;;;;;;19.40;18.20;;;;;14.34;54.28;100309.75;5048465;28;8857;-81
2023/10/02 05:56:25;;;;;;;;;23.00;21.20;;;;;14.48;53.94;100304.97;5060824;28;8908;-77
2023/10/02 05:58:55;;;;;;;;;22.20;19.60;;;;;14.54;53.80;100308.38;5073127;28;8855;-77
2023/10/02 06:01:26;;;;;;;;;24.00;23.00;;;;;14.67;53.49;100309.81;5076114;28;8983;-78
2023/10/02 06:04:00;;;;;;;;;22.20;20.40;;;;;14.77;53.34;100313.09;5065717;28;8938;-76
2023/10/02 06:06:35;;;;;;;;;21.40;17.80;;;;;14.91;52.97;100318.91;5053798;28;8860;-78
2023/10/02 06:09:13;;;;;;;;;22.40;21.00;;;;;14.99;52.67;100324.88;5067585;28;8923;-75
2023/10/02 06:14:38;;;;;;;;;18.40;16.00;;;;;15.16;52.22;100334.13;4977772;28;9961;-74
2023/10/02 06:17:12;;;;;;;;;18.20;18.20;;;;;15.25;51.73;100336.53;5026216;28;9730;-76
2023/10/02 06:19:48;;;;;;;;;17.20;16.60;;;;;15.36;51.49;100334.47;5030076;28;8822;-75
2023/10/02 06:22:19;;;;;;;;;17.00;16.60;;;;;15.39;51.66;100339.66;5025339;28;8850;-80
2023/10/02 06:24:48;;;;;;;;;18.20;17.80;;;;;15.51;51.12;100342.88;5025413;28;8869;-75
2023/10/02 06:27:21;;;;;;;;;22.20;19.40;;;;;15.63;51.02;100339.91;4993105;28;8872;-77
2023/10/02 06:29:51;;;;;;;;;20.80;19.60;;;;;15.68;50.83;100340.66;5019761;28;8959;-77
2023/10/02 06:32:20;;;;;;;;;22.00;19.80;;;;;15.76;50.53;100346.59;4992398;28;8853;-75
2023/10/02 06:34:50;;;;;;;;;22.60;22.60;;;;;15.87;50.20;100345.38;5007280;28;8941;-75
2023/10/02 06:37:28;;;;;;;;;19.60;19.60;;;;;15.99;50.13;100356.50;5006035;28;8914;-75
2023/10/02 06:40:04;;;;;;;;;22.60;19.80;;;;;16.09;49.74;100348.25;5019881;28;8923;-74
2023/10/02 06:42:34;;;;;;;;;17.80;17.60;;;;;16.22;49.39;100353.13;5002440;28;8876;-75
2023/10/02 06:45:09;;;;;;;;;20.20;19.20;;;;;16.33;48.81;100352.78;5006478;28;8854;-77
2023/10/02 06:47:37;;;;;;;;;21.80;20.40;;;;;16.10;48.83;100355.31;5029006;28;8862;-77
2023/10/02 06:52:59;;;;;;;;;16.80;16.20;;;;;15.71;50.75;100360.88;5117311;27;1383016;-77
2023/10/02 06:55:32;;;;;;;;;20.00;19.20;;;;;16.18;49.38;100351.47;5149443;27;8853;-76
2023/10/02 06:58:02;;;;;;;;;24.00;20.80;;;;;16.37;48.48;100354.41;5114970;27;8960;-76
2023/10/02 07:00:54;;;;;;;;;21.60;20.00;;;;;16.40;48.45;100356.97;5168332;27;8861;-79
2023/10/02 07:03:24;;;;;;;;;21.40;19.20;;;;;16.45;48.48;100353.34;5140770;27;8843;-76
2023/10/02 07:05:54;;;;;;;;;20.80;19.20;;;;;16.55;47.84;100355.66;5132126;27;8866;-70
2023/10/02 07:08:26;;;;;;;;;24.20;21.00;;;;;16.48;47.77;100363.88;5130235;27;8859;-73
2023/10/02 07:10:58;;;;;;;;;17.40;15.60;;;;;16.65;47.69;100366.84;5147778;27;8857;-72
2023/10/02 07:13:27;;;;;;;;;22.60;22.60;;;;;16.26;48.66;100363.66;5148331;27;8831;-72
2023/10/02 07:15:57;;;;;;;;;18.60;18.20;;;;;16.43;48.23;100369.28;5131232;27;8958;-72
2023/10/02 07:18:35;;;;;;;;;15.80;15.80;;;;;16.62;47.71;100366.91;5161890;27;8854;-74
2023/10/02 07:21:07;;;;;;;;;16.60;15.60;;;;;16.80;47.26;100378.72;5131185;27;8874;-72
2023/10/02 07:23:38;;;;;;;;;22.60;20.20;;;;;16.94;47.18;100375.59;5149833;27;8849;-73
2023/10/02 07:26:14;;;;;;;;;18.20;16.60;;;;;17.20;46.75;100383.53;5152147;27;8821;-71
2023/10/02 07:28:50;;;;;;;;;20.00;19.00;;;;;17.32;46.19;100379.59;5146392;27;8893;-74
2023/10/02 07:31:21;;;;;;;;;27.20;21.40;;;;;17.48;45.92;100381.72;5149045;27;8863;-75
2023/10/02 07:33:55;;;;;;;;;20.60;19.80;;;;;17.21;45.68;100381.72;5165185;27;10116;-74
2023/10/02 07:36:26;;;;;;;;;17.80;17.80;;;;;16.55;47.18;100389.28;5161117;27;8870;-68
2023/10/02 07:39:00;;;;;;;;;25.20;22.00;;;;;16.95;47.09;100393.28;5135701;27;8946;-75
2023/10/02 07:41:29;;;;;;;;;29.50;26.75;;;;;16.80;47.07;100400.84;5164702;27;8839;-75
2023/10/02 07:44:07;;;;;;;;;13.00;11.40;;;;;17.05;46.94;100397.34;5145740;27;8970;-75
2023/10/02 07:46:38;;;;;;;;;27.80;22.40;;;;;16.53;47.40;100401.72;5128627;27;8937;-75
2023/10/02 07:49:10;;;;;;;;;24.00;23.00;;;;;15.94;49.62;100408.78;5152206;27;8892;-74
2023/10/02 07:51:39;;;;;;;;;21.40;19.80;;;;;15.82;49.96;100406.50;5147058;27;8854;-75
2023/10/02 07:54:13;;;;;;;;;25.00;21.40;;;;;16.28;48.90;100405.13;5145988;27;8853;-77
2023/10/02 07:56:47;;;;;;;;;27.40;22.80;;;;;16.67;48.05;100412.78;5096111;27;8836;-76
2023/10/02 07:59:18;;;;;;;;;19.00;19.00;;;;;16.99;47.25;100402.88;5148250;27;8866;-78
2023/10/02 08:01:51;;;;;;;;;18.80;16.80;;;;;16.27;46.81;100411.34;5170866;27;8985;-78
2023/10/02 08:04:37;;;;;;;;;17.60;15.00;;;;;15.90;47.56;100412.44;5102967;27;9565;-78
2023/10/02 08:07:11;;;;;;;;;22.40;20.60;;;;;15.67;49.84;100420.22;5152300;27;8882;-79
2023/10/02 08:10:01;;;;;;;;;14.80;14.80;;;;;15.58;49.26;100419.50;5120604;27;8857;-80
2023/10/02 08:12:34;;;;;;;;;21.00;19.20;;;;;16.16;48.13;100409.03;5112901;27;8830;-80
2023/10/02 08:15:25;;;;;;;;;19.20;19.20;;;;;16.65;47.82;100419.06;5113824;27;8952;-77
2023/10/02 08:18:14;;;;;;;;;22.40;18.40;;;;;16.82;47.00;100415.88;5152156;27;8890;-70
2023/10/02 08:20:45;;;;;;;;;17.60;16.80;;;;;15.96;48.86;100422.00;5151751;27;8859;-70
2023/10/02 08:23:22;;;;;;;;;17.00;16.00;;;;;15.69;49.18;100416.59;5151542;27;8863;-70
2023/10/02 08:26:02;;;;;;;;;19.20;17.40;;;;;16.16;47.59;100424.06;5059291;27;9603;-70
2023/10/02 08:28:35;;;;;;;;;16.20;16.20;;;;;16.55;46.64;100413.16;5127936;27;8855;-81
2023/10/02 08:31:13;;;;;;;;;15.60;15.60;;;;;16.86;46.02;100410.38;5101730;27;8864;-83
2023/10/02 08:33:45;;;;;;;;;15.80;15.80;;;;;16.31;46.94;100422.75;5134899;27;8895;-84
2023/10/02 08:36:30;;;;;;;;;18.40;16.40;;;;;16.30;46.84;100421.00;5156535;27;8863;-82
2023/10/02 08:39:00;;;;;;;;;20.20;17.20;;;;;16.79;46.11;100416.81;5117489;27;8843;-81
2023/10/02 08:41:50;;;;;;;;;15.80;15.80;;;;;16.01;47.38;100410.34;5088450;27;8834;-81
2023/10/02 08:44:22;;;;;;;;;16.60;14.60;;;;;15.78;48.13;100418.13;5112408;27;8990;-82
2023/10/02 08:46:56;;;;;;;;;20.60;18.40;;;;;15.95;48.04;100425.59;5134021;27;8869;-82
2023/10/02 08:49:27;;;;;;;;;8.60;7.60;;;;;16.49;46.78;100422.19;5136369;27;8847;-81
2023/10/02 08:51:56;;;;;;;;;14.20;14.20;;;;;16.66;46.26;100412.81;5137748;27;9011;-85
2023/10/02 08:54:28;;;;;;;;;15.00;14.40;;;;;16.85;45.17;100419.25;5141671;27;8972;-82
2023/10/02 08:57:08;;;;;;;;;14.00;14.00;;;;;17.02;44.50;100417.84;5118210;27;8855;-82
2023/10/02 08:59:41;;;;;;;;;17.40;16.40;;;;;17.20;43.89;100423.38;5079102;27;8977;-83
2023/10/02 09:02:15;;;;;;;;;14.80;14.80;;;;;17.42;43.98;100412.06;5101969;27;8913;-83
2023/10/02 09:05:09;;;;;;;;;15.80;14.40;;;;;17.44;43.07;100415.53;5114419;27;8883;-82
2023/10/02 09:08:00;;;;;;;;;23.80;23.80;;;;;17.53;43.23;100407.22;5119266;27;8976;-79
2023/10/02 09:10:34;;;;;;;;;18.80;17.00;;;;;17.92;42.03;100406.66;5124267;27;8843;-81
2023/10/02 09:13:16;;;;;;;;;14.60;14.20;;;;;18.39;41.63;100399.59;5128744;27;8875;-82
2023/10/02 09:15:48;;;;;;;;;15.00;13.00;;;;;18.48;40.36;100399.22;5117953;27;8861;-82
2023/10/02 09:18:33;;;;;;;;;13.40;13.40;;;;;18.73;40.60;100396.41;5129427;27;8819;-80
2023/10/02 09:21:15;;;;;;;;;18.80;17.20;;;;;18.82;39.79;100396.06;5112680;27;8935;-82
2023/10/02 09:23:51;;;;;;;;;15.60;14.80;;;;;19.05;39.98;100388.91;5131781;27;8843;-82
2023/10/02 09:26:25;;;;;;;;;16.80;15.20;;;;;19.21;39.69;100383.75;5119377;27;9104;-76
2023/10/02 09:29:05;;;;;;;;;16.00;13.80;;;;;19.25;39.52;100385.34;5129831;27;8963;-78
2023/10/02 09:31:36;;;;;;;;;17.80;17.40;;;;;19.42;39.31;100384.59;5079883;27;8839;-75
2023/10/02 09:34:11;;;;;;;;;15.00;13.20;;;;;19.60;38.43;100388.31;5105640;27;8971;-74
2023/10/02 09:37:11;;;;;;;;;15.00;13.20;;;;;19.67;37.72;100390.63;5106485;28;8956;-76
2023/10/02 09:40:13;;;;;;;;;13.00;11.00;;;;;19.74;36.96;100385.84;5104724;28;8857;-77
2023/10/02 09:42:45;;;;;;;;;10.80;9.20;;;;;19.87;36.41;100389.69;5102712;27;8827;-76
2023/10/02 09:45:30;;;;;;;;;9.80;9.80;;;;;20.04;35.53;100394.22;5094731;27;8886;-76
2023/10/02 09:48:05;;;;;;;;;10.40;9.40;;;;;20.01;35.47;100385.50;5128846;27;8827;-74
2023/10/02 09:50:46;;;;;;;;;12.00;12.00;;;;;20.08;35.69;100382.50;5115883;27;8947;-81
2023/10/02 09:53:19;;;;;;;;;14.60;14.60;;;;;20.13;35.07;100390.28;5109839;28;9762;-79
2023/10/02 09:56:13;;;;;;;;;14.60;13.20;;;;;19.41;35.62;100396.22;5076633;28;9659;-78
2023/10/02 09:58:52;;;;;;;;;12.60;11.00;;;;;18.62;36.65;100398.66;5090055;28;8849;-79
2023/10/02 10:01:34;;;;;;;;;10.40;10.20;;;;;18.44;37.70;100393.16;5115020;28;8943;-77
2023/10/02 10:07:06;;;;;;;;;11.40;9.40;;;;;19.44;36.62;100380.97;5033617;28;8903;-75
2023/10/02 10:12:32;;;;;;;;;9.80;9.80;;;;;19.95;36.40;100381.31;5044373;28;8866;-75
2023/10/02 10:15:27;;;;;;;;;10.40;10.40;;;;;20.34;36.41;100372.38;5040028;28;8854;-76
2023/10/02 10:17:58;;;;;;;;;13.40;13.40;;;;;19.33;37.58;100372.56;5026226;28;9011;-75
2023/10/02 10:20:29;;;;;;;;;12.00;10.60;;;;;18.84;37.44;100367.56;5024969;28;8828;-73
2023/10/02 10:22:58;;;;;;;;;13.20;10.80;;;;;18.64;37.73;100373.69;5025101;28;9006;-74
2023/10/02 10:25:44;;;;;;;;;11.80;11.00;;;;;18.27;38.25;100374.31;5023655;28;9768;-75
2023/10/02 10:28:29;;;;;;;;;16.60;11.80;;;;;17.51;40.00;100376.28;5023881;28;8891;-75
2023/10/02 10:31:02;;;;;;;;;12.80;9.40;;;;;17.29;40.50;100376.22;5024658;28;10003;-74
2023/10/02 10:33:40;;;;;;;;;13.80;13.40;;;;;17.40;40.34;100371.38;5024886;28;9075;-74
2023/10/02 10:36:40;;;;;;;;;14.60;13.80;;;;;17.22;40.08;100370.19;5024917;28;8847;-74
2023/10/02 10:39:45;;;;;;;;;16.80;14.60;;;;;17.29;40.07;100368.22;5024274;28;8859;-72
2023/10/02 10:42:15;;;;;;;;;15.20;11.40;;;;;17.18;40.25;100352.63;5008297;28;8868;-73
2023/10/02 10:44:52;;;;;;;;;15.80;14.60;;;;;17.36;40.71;100351.13;5013441;28;9052;-73
2023/10/02 10:47:38;;;;;;;;;14.20;11.40;;;;;17.72;39.99;100348.91;5024921;28;8859;-72
2023/10/02 10:50:29;;;;;;;;;15.20;14.80;;;;;18.14;39.24;100345.53;5024545;28;8986;-74
2023/10/02 10:53:26;;;;;;;;;14.80;13.40;;;;;18.63;39.43;100334.69;5026620;28;8844;-72
2023/10/02 10:55:54;;;;;;;;;15.80;13.60;;;;;18.04;39.15;100351.28;5077839;28;8845;-73
2023/10/02 10:58:33;;;;;;;;;16.00;13.60;;;;;18.16;39.05;100338.34;5084650;28;8892;-73
2023/10/02 11:01:07;;;;;;;;;11.80;11.80;;;;;18.73;38.68;100336.00;5065714;28;8876;-74
2023/10/02 11:03:38;;;;;;;;;10.80;10.00;;;;;19.04;37.52;100331.19;5031123;28;8859;-73
2023/10/02 11:06:11;;;;;;;;;13.80;11.60;;;;;18.30;38.15;100342.25;5068697;28;8903;-74
2023/10/02 11:08:40;;;;;;;;;12.80;10.80;;;;;17.87;39.03;100339.47;5064430;28;8863;-76
2023/10/02 11:11:11;;;;;;;;;12.40;12.00;;;;;18.40;38.04;100340.94;5084616;28;8872;-77
2023/10/02 11:13:51;;;;;;;;;53.50;41.25;;;;;17.78;39.62;100334.50;5066602;28;8867;-78
2023/10/02 11:16:30;;;;;;;;;44.25;37.75;;;;;18.05;39.16;100337.06;5067686;28;8957;-77
2023/10/02 11:19:25;;;;;;;;;17.40;13.40;;;;;17.71;39.71;100330.34;5084956;28;9084;-76
2023/10/02 11:22:15;;;;;;;;;12.80;11.20;;;;;17.94;39.65;100332.13;5084219;28;8872;-75
2023/10/02 11:25:18;;;;;;;;;14.80;14.80;;;;;18.37;39.06;100321.59;5034485;28;8876;-74
2023/10/02 11:27:56;;;;;;;;;15.00;13.80;;;;;18.14;39.62;100328.72;5117986;27;8897;-76
2023/10/02 11:30:32;;;;;;;;;16.40;16.20;;;;;18.13;39.87;100316.31;5149270;27;8923;-75
2023/10/02 11:33:04;;;;;;;;;14.40;14.40;;;;;17.81;40.38;100312.25;5151612;27;8859;-73
2023/10/02 11:35:38;;;;;;;;;18.40;15.40;;;;;17.92;40.09;100310.03;5149551;27;8868;-75
2023/10/02 11:38:10;;;;;;;;;21.00;16.80;;;;;18.58;39.47;100302.06;5148824;27;8883;-74
2023/10/02 11:40:43;;;;;;;;;15.40;13.00;;;;;19.12;38.20;100300.63;5151698;27;8843;-74
2023/10/02 11:43:15;;;;;;;;;13.40;13.20;;;;;19.63;37.94;100298.34;5151626;27;8881;-73
2023/10/02 11:45:47;;;;;;;;;15.20;14.00;;;;;19.92;36.76;100296.09;5152086;27;8878;-73
2023/10/02 11:48:16;;;;;;;;;12.80;12.80;;;;;19.83;36.80;100301.88;5088676;28;8881;-76
2023/10/02 11:50:46;;;;;;;;;10.80;10.60;;;;;20.14;35.27;100292.38;5087456;28;8953;-74
2023/10/02 11:53:17;;;;;;;;;9.00;8.20;;;;;19.82;35.58;100293.00;5039032;28;8869;-73
2023/10/02 11:55:48;;;;;;;;;15.80;15.00;;;;;19.84;35.55;100288.47;5071339;28;8857;-75
2023/10/02 11:58:17;;;;;;;;;10.00;10.00;;;;;19.45;36.18;100288.50;5038458;28;8949;-71
2023/10/02 12:00:46;;;;;;;;;14.20;13.20;;;;;19.52;36.42;100293.50;5087458;28;9951;-75
2023/10/02 12:03:18;;;;;;;;;9.80;9.60;;;;;20.18;34.79;100284.16;5040271;28;9650;-75
2023/10/02 12:05:50;;;;;;;;;9.00;8.40;;;;;20.03;35.58;100276.91;5089209;28;8855;-76
2023/10/02 12:08:21;;;;;;;;;14.60;12.40;;;;;20.01;35.59;100279.66;5091000;28;8872;-73
2023/10/02 12:10:55;;;;;;;;;10.40;10.00;;;;;20.41;35.27;100276.84;5071221;28;8907;-74
2023/10/02 12:13:23;;;;;;;;;9.00;9.00;;;;;20.53;34.98;100275.34;5087422;28;9574;-74
2023/10/02 12:15:54;;;;;;;;;10.00;9.60;;;;;20.87;34.15;100263.78;5071398;28;8849;-72
2023/10/02 12:18:23;;;;;;;;;11.00;11.00;;;;;21.05;34.29;100270.00;5090209;27;9752;-75
2023/10/02 12:20:53;;;;;;;;;12.20;11.60;;;;;21.12;33.94;100252.66;5149916;27;8828;-74
2023/10/02 12:23:23;;;;;;;;;12.20;10.20;;;;;21.13;33.81;100259.75;5151397;27;8877;-75